createdAt,value
2019-05-19T00:02:26.214Z,71.32
2019-05-19T00:04:55.052Z,71.35
2019-05-19T00:07:23.866Z,72.06
2019-05-19T00:09:52.692Z,71.79
2019-05-19T00:12:21.492Z,71.35
2019-05-19T00:14:50.261Z,70.82
2019-05-19T00:17:19.025Z,70.39
2019-05-19T00:19:47.812Z,70.35
2019-05-19T00:22:16.691Z,70.07
2019-05-19T00:24:45.452Z,69.60
2019-05-19T00:27:14.260Z,69.80
2019-05-19T00:29:43.054Z,69.50
2019-05-19T00:32:11.855Z,68.87
2019-05-19T00:34:40.653Z,68.67
2019-05-19T00:37:09.413Z,68.60
2019-05-19T00:39:38.173Z,68.59
2019-05-19T00:42:06.972Z,69.13
2019-05-19T00:44:35.694Z,69.45
2019-05-19T00:47:04.495Z,69.48
2019-05-19T00:49:41.041Z,69.75
2019-05-19T00:52:03.783Z,69.79
2019-05-19T00:54:32.554Z,69.76
2019-05-19T00:57:03.633Z,69.78
2019-05-19T00:59:33.734Z,69.58
2019-05-19T01:02:02.558Z,69.67
2019-05-19T01:04:31.437Z,69.73
2019-05-19T01:07:00.174Z,69.81
2019-05-19T01:09:28.925Z,70.14
2019-05-19T01:11:57.736Z,70.28
2019-05-19T01:14:26.494Z,70.36
2019-05-19T01:16:55.314Z,70.26
2019-05-19T01:19:24.094Z,69.96
2019-05-19T01:21:53.655Z,69.73
2019-05-19T01:24:22.554Z,69.31
2019-05-19T01:26:51.342Z,69.95
2019-05-19T01:29:20.154Z,69.55
2019-05-19T01:31:49.035Z,70.44
2019-05-19T01:34:17.774Z,70.92
2019-05-19T01:36:46.576Z,71.30
2019-05-19T01:39:15.354Z,71.55
2019-05-19T01:41:44.174Z,70.67
2019-05-19T01:44:12.962Z,70.96
2019-05-19T01:46:41.714Z,70.87
2019-05-19T01:49:10.514Z,70.49
2019-05-19T01:51:39.357Z,71.78
2019-05-19T01:54:08.154Z,71.80
2019-05-19T01:56:36.914Z,72.01
2019-05-19T01:59:05.674Z,72.69
2019-05-19T02:01:34.516Z,72.86
2019-05-19T02:04:03.282Z,73.19
2019-05-19T02:06:32.137Z,73.55
2019-05-19T02:09:00.894Z,73.02
2019-05-19T02:11:29.680Z,72.71
2019-05-19T02:13:58.454Z,72.43
2019-05-19T02:16:27.216Z,72.01
2019-05-19T02:18:56.002Z,72.22
2019-05-19T02:21:24.759Z,71.85
2019-05-19T02:23:53.535Z,72.05
2019-05-19T02:26:22.318Z,72.58
2019-05-19T02:28:51.061Z,71.78
2019-05-19T02:31:19.869Z,72.40
2019-05-19T02:33:48.635Z,72.56
2019-05-19T02:36:17.535Z,73.47
2019-05-19T02:38:46.301Z,73.20
2019-05-19T02:41:17.595Z,73.33
2019-05-19T02:43:48.095Z,72.64
2019-05-19T02:46:17.536Z,72.82
2019-05-19T02:48:47.074Z,72.25
2019-05-19T02:51:19.336Z,72.32
2019-05-19T02:53:49.100Z,72.25
2019-05-19T02:56:18.324Z,71.87
2019-05-19T02:58:47.776Z,71.40
2019-05-19T03:01:16.574Z,71.14
2019-05-19T03:03:45.382Z,71.32
2019-05-19T03:06:14.137Z,71.55
2019-05-19T03:08:42.914Z,71.40
2019-05-19T03:11:11.696Z,71.14
2019-05-19T03:13:40.494Z,70.87
2019-05-19T03:16:09.276Z,71.13
2019-05-19T03:18:38.035Z,71.11
2019-05-19T03:21:10.881Z,71.80
2019-05-19T03:23:37.314Z,72.35
2019-05-19T03:26:06.156Z,72.37
2019-05-19T03:28:34.897Z,72.08
2019-05-19T03:31:14.126Z,72.06
2019-05-19T03:33:44.435Z,72.20
2019-05-19T03:36:13.197Z,72.59
2019-05-19T03:38:42.015Z,72.56
2019-05-19T03:41:10.787Z,72.10
2019-05-19T03:43:39.538Z,71.71
2019-05-19T03:46:08.434Z,71.77
2019-05-19T03:48:37.316Z,74.11
2019-05-19T03:51:06.134Z,74.24
2019-05-19T03:53:34.876Z,73.56
2019-05-19T03:56:03.644Z,72.54
2019-05-19T03:58:32.442Z,72.47
2019-05-19T04:01:01.319Z,73.20
2019-05-19T04:03:30.134Z,73.45
2019-05-19T04:05:58.877Z,74.37
2019-05-19T04:08:27.714Z,75.86
2019-05-19T04:10:56.514Z,75.94
2019-05-19T04:13:25.254Z,76.30
2019-05-19T04:15:54.072Z,76.73
2019-05-19T04:18:22.836Z,76.67
2019-05-19T04:20:51.655Z,76.37
2019-05-19T04:23:20.441Z,76.15
2019-05-19T04:25:49.197Z,76.33
2019-05-19T04:28:18.015Z,75.92
2019-05-19T04:30:46.815Z,76.30
2019-05-19T04:33:15.655Z,76.33
2019-05-19T04:35:44.540Z,76.96
2019-05-19T04:38:13.395Z,76.17
2019-05-19T04:40:43.406Z,75.48
2019-05-19T04:43:12.138Z,75.28
2019-05-19T04:45:40.972Z,74.50
2019-05-19T04:48:09.975Z,74.73
2019-05-19T04:50:38.833Z,74.92
2019-05-19T04:53:07.616Z,75.24
2019-05-19T04:55:36.376Z,75.05
2019-05-19T04:58:05.174Z,74.85
2019-05-19T05:00:33.956Z,74.37
2019-05-19T05:03:02.676Z,73.80
2019-05-19T05:05:31.435Z,73.96
2019-05-19T05:08:00.198Z,73.42
2019-05-19T05:10:29.034Z,73.17
2019-05-19T05:12:57.756Z,73.06
2019-05-19T05:15:26.534Z,72.31
2019-05-19T05:17:55.335Z,72.67
2019-05-19T05:20:24.114Z,72.48
2019-05-19T05:22:52.918Z,72.28
2019-05-19T05:25:21.654Z,72.78
2019-05-19T05:27:50.474Z,72.00
2019-05-19T05:30:19.241Z,71.22
2019-05-19T05:32:48.015Z,70.95
2019-05-19T05:35:16.816Z,70.77
2019-05-19T05:37:45.635Z,70.35
2019-05-19T05:40:14.415Z,69.97
2019-05-19T05:42:43.249Z,68.79
2019-05-19T05:45:12.479Z,67.86
2019-05-19T05:47:41.276Z,69.09
2019-05-19T05:50:10.343Z,68.88
2019-05-19T05:52:39.349Z,67.85
2019-05-19T05:55:08.194Z,68.31
2019-05-19T05:57:36.956Z,68.56
2019-05-19T06:00:08.790Z,68.46
2019-05-19T06:02:37.735Z,68.15
2019-05-19T06:05:08.017Z,67.00
2019-05-19T06:07:36.791Z,67.05
2019-05-19T06:10:07.552Z,64.26
2019-05-19T06:12:36.312Z,64.09
2019-05-19T06:15:05.671Z,64.19
2019-05-19T06:17:34.496Z,64.71
2019-05-19T06:20:04.251Z,63.38
2019-05-19T06:22:33.474Z,62.19
2019-05-19T06:25:02.357Z,61.67
2019-05-19T06:27:31.472Z,61.03
2019-05-19T06:30:00.333Z,60.87
2019-05-19T06:32:30.672Z,59.48
2019-05-19T06:34:59.505Z,58.31
2019-05-19T06:37:28.272Z,57.91
2019-05-19T06:39:57.052Z,57.60
2019-05-19T06:42:25.893Z,57.05
2019-05-19T06:44:54.659Z,56.98
2019-05-19T06:47:23.444Z,54.43
2019-05-19T06:49:52.227Z,55.25
2019-05-19T06:52:21.014Z,55.79
2019-05-19T06:54:49.857Z,55.90
2019-05-19T06:57:18.605Z,55.94
2019-05-19T06:59:47.372Z,54.97
2019-05-19T07:02:16.194Z,55.16
2019-05-19T07:04:45.011Z,54.51
2019-05-19T07:07:13.865Z,54.44
2019-05-19T07:09:55.967Z,54.01
2019-05-19T07:12:13.193Z,54.76
2019-05-19T07:14:41.953Z,54.08
2019-05-19T07:17:10.737Z,52.79
2019-05-19T07:19:39.533Z,54.12
2019-05-19T07:22:08.291Z,51.52
2019-05-19T07:24:37.053Z,51.72
2019-05-19T07:27:05.851Z,52.28
2019-05-19T07:29:34.575Z,51.16
2019-05-19T07:32:03.412Z,51.64
2019-05-19T07:34:32.313Z,52.75
2019-05-19T07:37:01.153Z,52.44
2019-05-19T07:39:29.954Z,52.11
2019-05-19T07:41:58.693Z,51.97
2019-05-19T07:44:27.492Z,49.58
2019-05-19T07:46:56.255Z,48.69
2019-05-19T07:49:25.074Z,50.17
2019-05-19T07:51:53.814Z,49.92
2019-05-19T07:54:22.565Z,49.87
2019-05-19T07:56:51.330Z,50.03
2019-05-19T07:59:20.106Z,49.00
2019-05-19T08:01:48.911Z,49.35
2019-05-19T08:04:17.656Z,47.22
2019-05-19T08:06:46.388Z,47.92
2019-05-19T08:09:15.173Z,47.31
2019-05-19T08:11:44.032Z,48.21
2019-05-19T08:14:12.808Z,47.39
2019-05-19T08:16:41.593Z,49.32
2019-05-19T08:19:10.412Z,48.37
2019-05-19T08:21:39.151Z,46.85
2019-05-19T08:24:07.912Z,47.51
2019-05-19T08:26:36.694Z,49.65
2019-05-19T08:29:05.496Z,48.47
2019-05-19T08:31:34.293Z,47.95
2019-05-19T08:34:03.106Z,46.46
2019-05-19T08:36:31.976Z,47.11
2019-05-19T08:39:00.752Z,46.29
2019-05-19T08:41:29.531Z,45.50
2019-05-19T08:43:58.311Z,44.70
2019-05-19T08:46:27.157Z,45.24
2019-05-19T08:48:58.482Z,44.25
2019-05-19T08:51:26.495Z,43.58
2019-05-19T08:53:55.334Z,42.71
2019-05-19T08:56:24.114Z,43.76
2019-05-19T08:58:52.934Z,43.26
2019-05-19T09:01:21.716Z,43.34
2019-05-19T09:03:50.555Z,42.07
2019-05-19T09:06:19.315Z,41.98
2019-05-19T09:08:48.205Z,41.28
2019-05-19T09:11:16.996Z,41.60
2019-05-19T09:13:45.998Z,40.89
2019-05-19T09:16:14.874Z,41.40
2019-05-19T09:18:43.616Z,41.79
2019-05-19T09:21:12.382Z,39.82
2019-05-19T09:23:41.155Z,38.15
2019-05-19T09:26:09.935Z,38.58
2019-05-19T09:28:38.721Z,38.49
2019-05-19T09:31:07.475Z,38.42
2019-05-19T09:33:36.293Z,36.23
2019-05-19T09:36:05.934Z,37.07
2019-05-19T09:38:34.663Z,36.93
2019-05-19T09:41:03.553Z,35.58
2019-05-19T09:43:32.291Z,36.04
2019-05-19T09:46:01.113Z,36.21
2019-05-19T09:48:29.863Z,35.15
2019-05-19T09:50:58.712Z,33.79
2019-05-19T09:53:33.436Z,35.38
2019-05-19T09:56:02.152Z,35.13
2019-05-19T09:58:30.993Z,32.08
2019-05-19T10:00:59.712Z,31.71
2019-05-19T10:03:28.472Z,30.16
2019-05-19T10:05:57.231Z,32.69
2019-05-19T10:08:26.240Z,32.22
2019-05-19T10:11:14.155Z,33.71
2019-05-19T10:13:42.892Z,33.79
2019-05-19T10:16:11.653Z,33.17
2019-05-19T10:18:40.474Z,31.90
2019-05-19T10:21:09.215Z,34.08
2019-05-19T10:23:38.012Z,34.26
2019-05-19T10:26:06.772Z,33.57
2019-05-19T10:28:35.544Z,31.05
2019-05-19T10:31:04.333Z,30.01
2019-05-19T10:33:33.092Z,28.93
2019-05-19T10:36:01.844Z,29.76
2019-05-19T10:38:30.619Z,29.95
2019-05-19T10:40:59.433Z,31.71
2019-05-19T10:43:28.211Z,28.44
2019-05-19T10:46:00.083Z,29.85
2019-05-19T10:48:28.862Z,30.12
2019-05-19T10:50:57.615Z,27.94
2019-05-19T10:53:26.435Z,29.07
2019-05-19T10:55:55.194Z,31.80
2019-05-19T10:58:23.960Z,30.42
2019-05-19T11:00:52.737Z,29.00
2019-05-19T11:03:21.520Z,30.26
2019-05-19T11:05:50.334Z,28.75
2019-05-19T11:08:19.155Z,27.55
2019-05-19T11:10:47.976Z,28.90
2019-05-19T11:13:16.759Z,28.16
2019-05-19T11:15:45.534Z,28.72
2019-05-19T11:18:14.395Z,24.89
2019-05-19T11:20:43.155Z,24.44
2019-05-19T11:23:11.966Z,27.24
2019-05-19T11:25:51.083Z,28.72
2019-05-19T11:28:11.206Z,28.91
2019-05-19T11:30:39.999Z,29.46
2019-05-19T11:33:08.817Z,29.80
2019-05-19T11:35:37.614Z,29.96
2019-05-19T11:38:06.374Z,29.00
2019-05-19T11:40:35.178Z,27.25
2019-05-19T11:43:03.935Z,27.69
2019-05-19T11:45:32.795Z,27.83
2019-05-19T11:48:01.575Z,28.60
2019-05-19T11:50:30.301Z,27.82
2019-05-19T11:52:59.115Z,27.59
2019-05-19T11:55:27.855Z,28.18
2019-05-19T11:57:56.675Z,26.99
2019-05-19T12:00:25.438Z,28.61
2019-05-19T12:02:54.194Z,29.93
2019-05-19T12:05:23.066Z,29.05
2019-05-19T12:07:51.855Z,29.21
2019-05-19T12:10:20.685Z,29.66
2019-05-19T12:12:49.435Z,29.96
2019-05-19T12:15:18.374Z,28.79
2019-05-19T12:17:47.155Z,27.59
2019-05-19T12:20:16.014Z,27.66
2019-05-19T12:22:44.837Z,26.78
2019-05-19T12:25:14.015Z,24.24
2019-05-19T12:27:42.775Z,25.21
2019-05-19T12:30:14.474Z,26.61
2019-05-19T12:32:43.254Z,25.68
2019-05-19T12:35:12.374Z,26.70
2019-05-19T12:37:41.135Z,26.70
2019-05-19T12:40:10.095Z,26.52
2019-05-19T12:42:38.894Z,25.52
2019-05-19T12:45:11.438Z,26.21
2019-05-19T12:47:40.367Z,25.45
2019-05-19T12:50:09.815Z,25.16
2019-05-19T12:52:38.567Z,24.53
2019-05-19T12:55:07.708Z,24.53
2019-05-19T12:57:36.595Z,26.02
2019-05-19T13:00:06.635Z,25.30
2019-05-19T13:02:37.990Z,24.75
2019-05-19T13:05:07.006Z,24.41
2019-05-19T13:07:35.775Z,26.06
2019-05-19T13:10:08.514Z,24.52
2019-05-19T13:12:37.318Z,24.52
2019-05-19T13:15:07.598Z,25.24
2019-05-19T13:17:36.416Z,25.40
2019-05-19T13:20:05.841Z,24.72
2019-05-19T13:22:34.635Z,25.94
2019-05-19T13:25:03.835Z,23.01
2019-05-19T13:27:32.595Z,22.87
2019-05-19T13:30:01.501Z,22.24
2019-05-19T13:32:30.274Z,24.27
2019-05-19T13:34:59.035Z,24.21
2019-05-19T13:37:27.836Z,27.16
2019-05-19T13:39:56.599Z,27.16
2019-05-19T13:42:25.450Z,27.80
2019-05-19T13:44:54.194Z,26.74
2019-05-19T13:47:22.995Z,27.03
2019-05-19T13:49:51.775Z,26.02
2019-05-19T13:52:20.636Z,25.72
2019-05-19T13:54:49.451Z,26.99
2019-05-19T13:57:18.234Z,27.58
2019-05-19T13:59:47.017Z,27.62
2019-05-19T14:02:15.795Z,27.40
2019-05-19T14:04:44.580Z,26.60
2019-05-19T14:07:13.355Z,26.70
2019-05-19T14:09:42.117Z,25.57
2019-05-19T14:12:10.929Z,26.43
2019-05-19T14:14:39.679Z,27.27
2019-05-19T14:17:08.434Z,26.77
2019-05-19T14:19:37.292Z,28.19
2019-05-19T14:22:06.112Z,27.83
2019-05-19T14:24:34.871Z,27.08
2019-05-19T14:27:03.672Z,27.39
2019-05-19T14:29:32.514Z,25.91
2019-05-19T14:32:01.312Z,26.77
2019-05-19T14:34:30.097Z,26.18
2019-05-19T14:36:58.855Z,26.37
2019-05-19T14:39:27.637Z,26.74
2019-05-19T14:41:57.994Z,27.13
2019-05-19T14:44:26.775Z,26.58
2019-05-19T14:46:55.573Z,28.29
2019-05-19T14:49:24.356Z,26.12
2019-05-19T14:51:53.136Z,25.62
2019-05-19T14:54:21.916Z,25.03
2019-05-19T14:56:50.694Z,24.97
2019-05-19T14:59:19.548Z,25.70
2019-05-19T15:01:48.359Z,26.31
2019-05-19T15:04:17.122Z,29.80
2019-05-19T15:06:45.875Z,36.08
2019-05-19T15:09:14.655Z,39.70
2019-05-19T15:11:43.455Z,41.95
2019-05-19T15:14:12.312Z,44.05
2019-05-19T15:16:41.075Z,45.16
2019-05-19T15:19:09.894Z,46.51
2019-05-19T15:21:38.695Z,47.57
2019-05-19T15:24:07.463Z,47.50
2019-05-19T15:26:36.275Z,49.24
2019-05-19T15:29:05.035Z,49.90
2019-05-19T15:31:33.762Z,51.42
2019-05-19T15:34:02.554Z,52.56
2019-05-19T15:36:31.323Z,52.58
2019-05-19T15:39:00.113Z,53.59
2019-05-19T15:41:28.875Z,54.21
2019-05-19T15:43:57.637Z,54.56
2019-05-19T15:46:26.412Z,53.92
2019-05-19T15:48:55.173Z,55.00
2019-05-19T15:51:28.976Z,56.88
2019-05-19T15:53:54.493Z,55.27
2019-05-19T15:56:23.313Z,56.18
2019-05-19T15:58:52.089Z,56.60
2019-05-19T16:01:20.860Z,56.95
2019-05-19T16:03:49.724Z,59.81
2019-05-19T16:06:18.517Z,59.34
2019-05-19T16:08:47.293Z,60.01
2019-05-19T16:11:16.052Z,59.86
2019-05-19T16:13:44.832Z,60.53
2019-05-19T16:16:13.652Z,61.82
2019-05-19T16:18:42.411Z,60.87
2019-05-19T16:21:11.172Z,59.62
2019-05-19T16:23:39.972Z,60.53
2019-05-19T16:26:08.754Z,60.40
2019-05-19T16:28:37.575Z,61.63
2019-05-19T16:31:06.534Z,61.72
2019-05-19T16:33:35.375Z,60.93
2019-05-19T16:36:07.575Z,61.01
2019-05-19T16:38:34.636Z,60.74
2019-05-19T16:41:03.411Z,60.59
2019-05-19T16:43:32.150Z,60.37
2019-05-19T16:46:00.913Z,61.19
2019-05-19T16:48:29.720Z,60.64
2019-05-19T16:50:58.504Z,60.04
2019-05-19T16:53:27.315Z,59.93
2019-05-19T16:55:56.077Z,59.94
2019-05-19T16:58:24.874Z,59.88
2019-05-19T17:00:53.655Z,58.82
2019-05-19T17:03:22.594Z,59.25
2019-05-19T17:05:51.363Z,59.76
2019-05-19T17:08:20.135Z,59.96
2019-05-19T17:10:48.935Z,59.62
2019-05-19T17:13:17.776Z,60.11
2019-05-19T17:15:46.555Z,59.77
2019-05-19T17:18:15.321Z,60.61
2019-05-19T17:20:44.095Z,60.90
2019-05-19T17:23:12.877Z,61.01
2019-05-19T17:25:41.674Z,60.77
2019-05-19T17:28:10.454Z,60.43
2019-05-19T17:30:39.282Z,60.70
2019-05-19T17:33:08.074Z,60.26
2019-05-19T17:35:36.921Z,60.32
2019-05-19T17:38:05.696Z,60.02
2019-05-19T17:40:34.594Z,61.89
2019-05-19T17:43:03.498Z,62.73
2019-05-19T17:45:32.275Z,64.28
2019-05-19T17:48:09.734Z,64.34
2019-05-19T17:50:35.755Z,64.05
2019-05-19T17:53:04.955Z,65.07
2019-05-19T17:55:35.168Z,66.26
2019-05-19T17:58:04.678Z,66.18
2019-05-19T18:00:41.434Z,66.22
2019-05-19T18:03:10.654Z,66.30
2019-05-19T18:05:39.615Z,66.44
2019-05-19T18:08:08.460Z,67.00
2019-05-19T18:10:37.383Z,67.40
2019-05-19T18:13:06.231Z,67.60
2019-05-19T18:15:35.792Z,67.61
2019-05-19T18:18:04.712Z,67.62
2019-05-19T18:20:33.600Z,67.90
2019-05-19T18:23:02.487Z,68.30
2019-05-19T18:25:31.441Z,68.02
2019-05-19T18:28:00.355Z,67.81
2019-05-19T18:30:29.255Z,68.04
2019-05-19T18:32:58.081Z,68.29
2019-05-19T18:35:26.915Z,68.73
2019-05-19T18:37:55.815Z,68.71
2019-05-19T18:40:24.695Z,68.79
2019-05-19T18:42:53.485Z,68.83
2019-05-19T18:45:22.345Z,68.70
2019-05-19T18:47:51.201Z,68.69
2019-05-19T18:50:20.835Z,68.89
2019-05-19T18:52:49.735Z,69.28
2019-05-19T18:55:18.583Z,70.11
2019-05-19T18:57:47.395Z,69.99
2019-05-19T19:00:19.415Z,69.25
2019-05-19T19:02:48.235Z,69.50
2019-05-19T19:05:17.135Z,70.06
2019-05-19T19:07:50.545Z,70.05
2019-05-19T19:10:20.114Z,69.73
2019-05-19T19:12:49.075Z,70.45
2019-05-19T19:15:18.075Z,70.47
2019-05-19T19:17:46.915Z,69.97
2019-05-19T19:20:16.085Z,70.16
2019-05-19T19:22:44.901Z,69.39
2019-05-19T19:25:13.895Z,69.92
2019-05-19T19:27:42.674Z,70.02
2019-05-19T19:30:11.917Z,70.85
2019-05-19T19:32:40.795Z,71.60
2019-05-19T19:35:10.195Z,71.99
2019-05-19T19:37:39.074Z,71.24
2019-05-19T19:40:08.637Z,70.51
2019-05-19T19:42:37.417Z,70.54
2019-05-19T19:45:06.859Z,70.07
2019-05-19T19:47:35.635Z,70.15
2019-05-19T19:50:06.475Z,69.88
2019-05-19T19:52:35.339Z,69.50
2019-05-19T19:55:04.876Z,69.42
2019-05-19T19:57:33.652Z,69.14
2019-05-19T20:00:02.480Z,69.34
2019-05-19T20:02:31.317Z,70.29
2019-05-19T20:05:00.154Z,72.24
2019-05-19T20:07:28.915Z,71.98
2019-05-19T20:09:57.717Z,72.20
2019-05-19T20:12:26.550Z,72.25
2019-05-19T20:14:55.390Z,71.99
2019-05-19T20:17:24.156Z,71.27
2019-05-19T20:19:53.990Z,71.38
2019-05-19T20:22:22.830Z,71.45
2019-05-19T20:24:51.790Z,71.02
2019-05-19T20:27:20.590Z,71.22
2019-05-19T20:29:49.469Z,71.08
2019-05-19T20:32:18.268Z,71.42
2019-05-19T20:34:47.028Z,71.28
2019-05-19T20:37:15.790Z,71.05
2019-05-19T20:39:44.589Z,70.12
2019-05-19T20:42:13.429Z,70.89
2019-05-19T20:44:42.188Z,71.88
2019-05-19T20:47:11.067Z,73.37
2019-05-19T20:49:39.947Z,73.99
2019-05-19T20:52:08.747Z,73.86
2019-05-19T20:54:37.668Z,73.20
2019-05-19T20:57:06.468Z,71.60
2019-05-19T20:59:35.269Z,70.89
2019-05-19T21:02:04.077Z,70.64
2019-05-19T21:04:32.839Z,71.11
2019-05-19T21:07:01.636Z,71.81
2019-05-19T21:09:30.439Z,72.46
2019-05-19T21:11:59.166Z,72.83
2019-05-19T21:14:27.998Z,72.14
2019-05-19T21:16:56.798Z,71.21
2019-05-19T21:19:25.637Z,70.76
2019-05-19T21:21:54.437Z,70.21
2019-05-19T21:24:23.238Z,70.67
2019-05-19T21:26:52.077Z,71.36
2019-05-19T21:29:20.838Z,71.87
2019-05-19T21:31:49.716Z,70.15
2019-05-19T21:34:18.520Z,71.21
2019-05-19T21:36:47.317Z,70.67
2019-05-19T21:39:16.077Z,70.94
2019-05-19T21:41:44.916Z,71.36
2019-05-19T21:44:13.815Z,71.16
2019-05-19T21:46:42.640Z,71.77
2019-05-19T21:49:11.481Z,72.70
2019-05-19T21:51:40.277Z,72.33
2019-05-19T21:54:09.078Z,71.98
2019-05-19T21:56:37.876Z,72.72
2019-05-19T21:59:06.649Z,73.37
2019-05-19T22:01:35.639Z,74.01
2019-05-19T22:04:04.516Z,73.56
2019-05-19T22:06:34.836Z,74.60
2019-05-19T22:09:04.756Z,75.31
2019-05-19T22:11:33.584Z,75.88
2019-05-19T22:14:02.477Z,76.48
2019-05-19T22:16:31.263Z,76.50
2019-05-19T22:19:00.116Z,77.20
2019-05-19T22:21:28.886Z,76.80
2019-05-19T22:23:57.679Z,77.18
2019-05-19T22:26:26.687Z,77.98
2019-05-19T22:28:55.437Z,76.95
2019-05-19T22:31:36.263Z,76.45
2019-05-19T22:33:58.198Z,76.73
2019-05-19T22:36:26.996Z,77.67
2019-05-19T22:38:55.838Z,77.89
2019-05-19T22:41:24.596Z,77.34
2019-05-19T22:43:53.366Z,76.75
2019-05-19T22:46:22.204Z,75.56
2019-05-19T22:48:51.038Z,74.65
2019-05-19T22:51:22.690Z,74.26
2019-05-19T22:53:50.357Z,74.40
2019-05-19T22:56:19.198Z,75.35
2019-05-19T22:58:47.918Z,75.38
2019-05-19T23:01:16.719Z,75.62
2019-05-19T23:03:45.527Z,75.79
2019-05-19T23:06:14.358Z,76.02
2019-05-19T23:08:43.237Z,75.22
2019-05-19T23:11:11.998Z,75.15
2019-05-19T23:13:40.804Z,75.89
2019-05-19T23:16:09.679Z,75.86
2019-05-19T23:18:38.518Z,75.62
2019-05-19T23:21:07.320Z,74.30
2019-05-19T23:23:36.089Z,73.97
2019-05-19T23:26:04.962Z,73.94
2019-05-19T23:28:33.757Z,73.94
2019-05-19T23:31:02.597Z,74.51
2019-05-19T23:33:31.405Z,74.80
2019-05-19T23:36:00.197Z,74.47
2019-05-19T23:38:28.982Z,74.18
2019-05-19T23:40:57.760Z,74.24
2019-05-19T23:43:26.638Z,74.01
2019-05-19T23:45:55.437Z,73.52
2019-05-19T23:48:24.236Z,74.81
2019-05-19T23:50:53.150Z,74.93
2019-05-19T23:53:21.997Z,76.30
2019-05-19T23:55:50.796Z,76.99
2019-05-19T23:58:19.558Z,77.20
